createdAt,value
2023-02-21T00:01:59.561Z,6.47
2023-02-21T00:04:44.882Z,8.33
2023-02-21T00:07:30.220Z,7.83
2023-02-21T00:10:15.708Z,6.87
2023-02-21T00:13:01.048Z,6.63
2023-02-21T00:15:46.545Z,6.87
2023-02-21T00:18:33.488Z,7.10
2023-02-21T00:21:19.095Z,6.97
2023-02-21T00:24:04.675Z,6.10
2023-02-21T00:26:50.024Z,6.37
2023-02-21T00:29:35.949Z,7.13
2023-02-21T00:32:21.221Z,7.37
2023-02-21T00:35:07.943Z,6.70
2023-02-21T00:37:53.270Z,7.17
2023-02-21T00:40:38.929Z,6.40
2023-02-21T00:43:24.402Z,7.27
2023-02-21T00:46:09.893Z,7.07
2023-02-21T00:48:55.374Z,6.90
2023-02-21T00:51:41.910Z,6.27
2023-02-21T00:54:27.636Z,6.30
2023-02-21T00:57:12.998Z,6.87
2023-02-21T00:59:58.556Z,6.03
2023-02-21T01:02:44.169Z,6.87
2023-02-21T01:05:29.717Z,7.43
2023-02-21T01:08:16.685Z,6.43
2023-02-21T01:11:02.243Z,7.57
2023-02-21T01:13:47.612Z,7.00
2023-02-21T01:16:33.255Z,7.37
2023-02-21T01:19:18.607Z,7.23
2023-02-21T01:22:04.368Z,7.37
2023-02-21T01:24:50.990Z,6.87
2023-02-21T01:27:36.509Z,7.20
2023-02-21T01:30:22.514Z,7.40
2023-02-21T01:33:08.064Z,8.00
2023-02-21T01:35:53.582Z,7.53
2023-02-21T01:38:39.090Z,7.87
2023-02-21T01:41:25.788Z,8.60
2023-02-21T01:44:16.859Z,7.70
2023-02-21T01:47:02.187Z,8.10
2023-02-21T01:49:48.028Z,8.67
2023-02-21T01:52:33.788Z,8.23
2023-02-21T01:55:19.164Z,9.07
2023-02-21T01:58:05.808Z,8.13
2023-02-21T02:00:51.734Z,8.43
2023-02-21T02:03:38.461Z,9.73
2023-02-21T02:06:26.335Z,8.13
2023-02-21T02:09:11.702Z,8.10
2023-02-21T02:12:11.896Z,9.23
2023-02-21T02:14:54.778Z,8.67
2023-02-21T02:17:35.505Z,8.40
2023-02-21T02:20:27.450Z,8.77
2023-02-21T02:23:44.837Z,9.30
2023-02-21T02:26:55.832Z,10.20
2023-02-21T02:29:44.556Z,10.30
2023-02-21T02:32:33.992Z,10.30
2023-02-21T02:35:08.545Z,12.33
2023-02-21T02:37:42.218Z,12.00
2023-02-21T02:40:20.592Z,10.93
2023-02-21T02:43:04.309Z,11.13
2023-02-21T02:45:38.125Z,10.43
2023-02-21T02:48:14.860Z,10.90
2023-02-21T02:50:48.386Z,11.97
2023-02-21T02:53:18.753Z,11.40
2023-02-21T02:55:52.025Z,10.07
2023-02-21T02:58:22.538Z,11.67
2023-02-21T03:01:03.090Z,11.87
2023-02-21T03:03:46.895Z,11.60
2023-02-21T03:06:24.736Z,11.93
2023-02-21T03:08:58.264Z,11.43
2023-02-21T03:11:28.303Z,11.97
2023-02-21T03:14:01.258Z,12.47
2023-02-21T03:16:34.369Z,11.53
2023-02-21T03:19:05.672Z,11.90
2023-02-21T03:21:40.349Z,12.03
2023-02-21T03:24:10.763Z,12.87
2023-02-21T03:26:41.919Z,13.13
2023-02-21T03:29:10.980Z,12.67
2023-02-21T03:31:45.321Z,13.40
2023-02-21T03:34:13.477Z,12.00
2023-02-21T03:36:43.525Z,12.10
2023-02-21T03:39:11.729Z,12.77
2023-02-21T03:41:39.786Z,12.50
2023-02-21T03:44:07.853Z,11.53
2023-02-21T03:46:36.326Z,12.07
2023-02-21T03:49:04.310Z,12.43
2023-02-21T03:51:32.235Z,12.27
2023-02-21T03:54:01.581Z,12.70
2023-02-21T03:56:41.194Z,12.77
2023-02-21T03:59:10.223Z,13.07
2023-02-21T04:01:38.430Z,14.10
2023-02-21T04:04:06.427Z,12.50
2023-02-21T04:06:34.361Z,13.67
2023-02-21T04:09:04.223Z,13.60
2023-02-21T04:11:33.219Z,13.27
2023-02-21T04:14:01.165Z,13.43
2023-02-21T04:16:29.124Z,13.80
2023-02-21T04:18:57.212Z,13.93
2023-02-21T04:21:25.232Z,12.70
2023-02-21T04:23:53.281Z,13.57
2023-02-21T04:26:24.368Z,13.67
2023-02-21T04:28:52.578Z,13.57
2023-02-21T04:31:21.113Z,13.43
2023-02-21T04:33:51.619Z,11.80
2023-02-21T04:36:22.994Z,13.33
2023-02-21T04:38:51.420Z,12.50
2023-02-21T04:41:19.968Z,12.70
2023-02-21T04:43:49.290Z,12.60
2023-02-21T04:46:19.147Z,12.70
2023-02-21T04:48:48.803Z,12.70
2023-02-21T04:51:19.336Z,13.13
2023-02-21T04:53:48.923Z,12.90
2023-02-21T04:56:18.872Z,13.03
2023-02-21T04:58:46.854Z,12.17
2023-02-21T05:01:17.630Z,12.33
2023-02-21T05:03:46.141Z,12.40
2023-02-21T05:06:19.480Z,12.77
2023-02-21T05:08:47.791Z,12.70
2023-02-21T05:11:16.558Z,12.73
2023-02-21T05:13:44.925Z,12.23
2023-02-21T05:16:13.379Z,13.13
2023-02-21T05:18:44.777Z,12.00
2023-02-21T05:21:13.539Z,12.53
2023-02-21T05:23:54.207Z,12.73
2023-02-21T05:26:23.150Z,12.33
2023-02-21T05:28:52.468Z,11.90
2023-02-21T05:31:21.609Z,13.33
2023-02-21T05:33:51.030Z,12.57
2023-02-21T05:36:19.069Z,13.07
2023-02-21T05:38:48.320Z,13.43
2023-02-21T05:41:17.267Z,13.00
2023-02-21T05:43:45.747Z,13.20
2023-02-21T05:46:26.292Z,12.87
2023-02-21T05:48:57.259Z,14.03
2023-02-21T05:51:26.195Z,14.73
2023-02-21T05:53:54.430Z,14.17
2023-02-21T05:56:22.890Z,13.47
2023-02-21T05:58:50.894Z,13.10
2023-02-21T06:01:18.897Z,14.80
2023-02-21T06:03:47.033Z,13.87
2023-02-21T06:06:18.636Z,12.97
2023-02-21T06:08:48.785Z,15.60
2023-02-21T06:11:23.507Z,15.20
2023-02-21T06:13:52.374Z,14.07
2023-02-21T06:16:20.480Z,14.47
2023-02-21T06:18:51.561Z,13.50
2023-02-21T06:21:21.438Z,13.70
2023-02-21T06:23:49.640Z,13.33
2023-02-21T06:26:19.185Z,14.37
2023-02-21T06:28:47.959Z,13.87
2023-02-21T06:31:16.570Z,14.67
2023-02-21T06:33:45.044Z,15.77
2023-02-21T06:36:15.144Z,14.20
2023-02-21T06:38:47.249Z,14.77
2023-02-21T06:41:17.661Z,14.00
2023-02-21T06:43:45.906Z,14.13
2023-02-21T06:46:17.400Z,14.70
2023-02-21T06:48:45.550Z,14.17
2023-02-21T06:51:14.866Z,13.93
2023-02-21T06:53:43.852Z,13.90
2023-02-21T06:56:13.220Z,12.93
2023-02-21T06:58:41.228Z,14.20
2023-02-21T07:01:09.153Z,13.63
2023-02-21T07:03:40.550Z,13.47
2023-02-21T07:06:08.627Z,13.30
2023-02-21T07:08:36.640Z,14.00
2023-02-21T07:11:05.741Z,12.87
2023-02-21T07:13:35.112Z,13.43
2023-02-21T07:16:04.111Z,12.43
2023-02-21T07:18:32.141Z,12.53
2023-02-21T07:21:00.612Z,12.97
2023-02-21T07:23:28.603Z,13.33
2023-02-21T07:25:56.700Z,12.63
2023-02-21T07:28:24.678Z,13.23
2023-02-21T07:30:54.025Z,13.00
2023-02-21T07:33:22.012Z,13.40
2023-02-21T07:35:49.945Z,14.23
2023-02-21T07:38:21.992Z,14.60
2023-02-21T07:40:50.225Z,15.00
2023-02-21T07:43:18.687Z,14.57
2023-02-21T07:45:46.627Z,14.50
2023-02-21T07:48:16.002Z,15.53
2023-02-21T07:50:44.712Z,14.93
2023-02-21T07:53:13.652Z,14.07
2023-02-21T07:55:41.798Z,14.13
2023-02-21T07:58:10.411Z,14.53
2023-02-21T08:00:40.450Z,14.37
2023-02-21T08:03:10.809Z,13.63
2023-02-21T08:05:40.962Z,13.90
2023-02-21T08:08:09.635Z,15.47
2023-02-21T08:10:38.218Z,14.13
2023-02-21T08:13:07.202Z,14.50
2023-02-21T08:15:35.506Z,13.40
2023-02-21T08:18:03.640Z,13.73
2023-02-21T08:20:31.805Z,13.47
2023-02-21T08:23:01.284Z,14.50
2023-02-21T08:25:29.400Z,13.87
2023-02-21T08:27:57.501Z,14.90
2023-02-21T08:30:26.182Z,13.47
2023-02-21T08:32:54.721Z,14.27
2023-02-21T08:35:23.077Z,14.27
2023-02-21T08:37:55.803Z,13.43
2023-02-21T08:40:25.836Z,15.13
2023-02-21T08:42:55.442Z,14.90
2023-02-21T08:45:25.318Z,14.47
2023-02-21T08:47:53.799Z,15.20
2023-02-21T08:50:25.013Z,14.63
2023-02-21T08:52:53.572Z,14.23
2023-02-21T08:55:22.589Z,14.10
2023-02-21T08:57:53.724Z,13.73
2023-02-21T09:00:24.455Z,14.37
2023-02-21T09:02:53.592Z,14.33
2023-02-21T09:05:24.492Z,14.30
2023-02-21T09:07:55.176Z,13.07
2023-02-21T09:10:23.677Z,14.63
2023-02-21T09:12:58.750Z,14.80
2023-02-21T09:15:26.893Z,14.13
2023-02-21T09:17:55.369Z,14.33
2023-02-21T09:20:26.735Z,13.03
2023-02-21T09:22:54.725Z,13.27
2023-02-21T09:25:25.392Z,13.83
2023-02-21T09:27:55.212Z,15.27
2023-02-21T09:30:26.572Z,14.63
2023-02-21T09:32:55.246Z,15.17
2023-02-21T09:35:23.999Z,14.10
2023-02-21T09:37:52.206Z,16.37
2023-02-21T09:40:30.335Z,14.47
2023-02-21T09:43:02.308Z,14.83
2023-02-21T09:45:34.083Z,14.30
2023-02-21T09:48:06.461Z,13.97
2023-02-21T09:50:40.988Z,14.43
2023-02-21T09:53:09.813Z,14.07
2023-02-21T09:55:40.070Z,14.70
2023-02-21T09:58:13.934Z,13.57
2023-02-21T10:00:44.760Z,13.97
2023-02-21T10:03:39.190Z,13.17
2023-02-21T10:06:13.323Z,13.30
2023-02-21T10:08:50.468Z,12.57
2023-02-21T10:11:35.415Z,14.40
2023-02-21T10:14:15.419Z,13.57
2023-02-21T10:16:49.135Z,14.03
2023-02-21T10:19:22.833Z,13.50
2023-02-21T10:21:51.193Z,14.17
2023-02-21T10:24:22.536Z,13.80
2023-02-21T10:26:57.116Z,14.63
2023-02-21T10:29:31.429Z,12.67
2023-02-21T10:32:04.227Z,13.20
2023-02-21T10:34:34.776Z,14.33
2023-02-21T10:37:10.203Z,13.90
2023-02-21T10:39:44.864Z,13.57
2023-02-21T10:42:20.365Z,13.30
2023-02-21T10:44:48.282Z,14.40
2023-02-21T10:47:20.646Z,13.37
2023-02-21T10:49:57.368Z,13.33
2023-02-21T10:52:25.422Z,14.00
2023-02-21T10:55:03.890Z,14.47
2023-02-21T10:57:34.850Z,12.60
2023-02-21T11:00:10.460Z,13.07
2023-02-21T11:02:41.253Z,12.93
2023-02-21T11:05:15.647Z,13.03
2023-02-21T11:07:56.607Z,13.23
2023-02-21T11:10:36.226Z,13.30
2023-02-21T11:13:15.001Z,13.37
2023-02-21T11:15:43.800Z,12.80
2023-02-21T11:18:18.159Z,12.43
2023-02-21T11:20:47.351Z,12.00
2023-02-21T11:23:25.031Z,12.13
2023-02-21T11:26:01.040Z,11.73
2023-02-21T11:28:29.557Z,12.13
2023-02-21T11:31:14.476Z,12.00
2023-02-21T11:33:50.010Z,11.47
2023-02-21T11:36:21.790Z,12.00
2023-02-21T11:39:04.717Z,11.87
2023-02-21T11:41:39.573Z,11.20
2023-02-21T11:44:33.855Z,11.80
2023-02-21T11:47:14.162Z,11.53
2023-02-21T11:49:52.466Z,10.57
2023-02-21T11:52:25.605Z,9.87
2023-02-21T11:54:53.904Z,10.47
2023-02-21T11:57:32.520Z,10.20
2023-02-21T12:00:11.397Z,11.67
2023-02-21T12:02:51.316Z,11.20
2023-02-21T12:05:42.758Z,10.43
2023-02-21T12:08:44.537Z,10.83
2023-02-21T12:11:23.285Z,10.03
2023-02-21T12:14:02.341Z,11.10
2023-02-21T12:16:47.861Z,10.90
2023-02-21T12:19:31.742Z,11.03
2023-02-21T12:22:04.226Z,11.03
2023-02-21T12:24:53.521Z,11.00
2023-02-21T12:27:43.564Z,11.23
2023-02-21T12:30:51.225Z,11.03
2023-02-21T12:33:35.834Z,11.43
2023-02-21T12:36:17.265Z,11.30
2023-02-21T12:39:04.748Z,10.00
2023-02-21T12:41:51.036Z,11.20
2023-02-21T12:44:22.284Z,10.07
2023-02-21T12:46:57.774Z,9.80
2023-02-21T12:49:30.716Z,10.83
2023-02-21T12:52:04.022Z,10.70
2023-02-21T12:54:41.028Z,10.03
2023-02-21T12:57:13.782Z,10.30
2023-02-21T12:59:51.980Z,10.67
2023-02-21T13:02:32.115Z,9.97
2023-02-21T13:05:14.044Z,9.40
2023-02-21T13:07:47.785Z,10.27
2023-02-21T13:10:19.929Z,10.47
2023-02-21T13:12:55.279Z,10.30
2023-02-21T13:15:25.991Z,10.47
2023-02-21T13:18:00.787Z,10.27
2023-02-21T13:20:34.327Z,10.57
2023-02-21T13:23:39.712Z,9.27
2023-02-21T13:26:28.593Z,10.30
2023-02-21T13:28:58.566Z,9.47
2023-02-21T13:31:29.761Z,10.13
2023-02-21T13:34:02.997Z,10.67
2023-02-21T13:36:33.687Z,9.50
2023-02-21T13:39:05.085Z,9.30
2023-02-21T13:41:36.801Z,8.93
2023-02-21T13:44:10.554Z,10.03
2023-02-21T13:47:02.083Z,9.93
2023-02-21T13:49:44.329Z,9.20
2023-02-21T13:52:32.136Z,9.40
2023-02-21T13:55:33.332Z,8.90
2023-02-21T13:58:46.708Z,9.63
2023-02-21T14:01:26.944Z,9.80
2023-02-21T14:03:58.383Z,8.93
2023-02-21T14:06:38.516Z,10.13
2023-02-21T14:09:12.677Z,9.77
2023-02-21T14:11:47.541Z,9.43
2023-02-21T14:14:25.477Z,9.03
2023-02-21T14:17:00.117Z,9.27
2023-02-21T14:19:35.633Z,8.97
2023-02-21T14:22:11.508Z,9.37
2023-02-21T14:24:42.521Z,8.83
2023-02-21T14:27:38.865Z,9.87
2023-02-21T14:30:33.538Z,8.67
2023-02-21T14:33:21.724Z,9.67
2023-02-21T14:36:00.688Z,9.57
2023-02-21T14:38:33.302Z,9.07
2023-02-21T14:41:12.611Z,9.63
2023-02-21T14:43:56.512Z,9.80
2023-02-21T14:46:55.883Z,10.23
2023-02-21T14:49:55.517Z,9.83
2023-02-21T14:52:44.384Z,9.77
2023-02-21T14:55:36.820Z,9.43
2023-02-21T14:58:30.347Z,8.63
2023-02-21T15:01:07.318Z,9.30
2023-02-21T15:03:39.341Z,10.70
2023-02-21T15:06:12.523Z,11.37
2023-02-21T15:08:46.051Z,9.50
2023-02-21T15:11:33.386Z,10.57
2023-02-21T15:14:25.304Z,10.13
2023-02-21T15:16:56.025Z,10.10
2023-02-21T15:19:30.788Z,10.40
2023-02-21T15:22:18.368Z,10.77
2023-02-21T15:25:20.291Z,10.30
2023-02-21T15:28:00.957Z,11.57
2023-02-21T15:30:34.813Z,10.87
2023-02-21T15:33:18.584Z,9.80
2023-02-21T15:35:52.008Z,11.47
2023-02-21T15:38:24.740Z,11.70
2023-02-21T15:40:56.577Z,11.03
2023-02-21T15:43:40.945Z,10.90
2023-02-21T15:46:10.859Z,11.83
2023-02-21T15:48:39.526Z,11.57
2023-02-21T15:51:10.762Z,10.03
2023-02-21T15:53:38.704Z,9.53
2023-02-21T15:56:20.113Z,10.00
2023-02-21T15:59:12.269Z,10.70
2023-02-21T16:01:41.099Z,11.60
2023-02-21T16:04:17.599Z,11.67
2023-02-21T16:06:52.142Z,11.50
2023-02-21T16:09:25.646Z,11.13
2023-02-21T16:11:56.521Z,11.07
2023-02-21T16:14:32.024Z,12.07
2023-02-21T16:17:17.503Z,11.60
2023-02-21T16:19:48.267Z,11.97
2023-02-21T16:22:38.755Z,10.70
2023-02-21T16:25:18.421Z,12.73
2023-02-21T16:27:49.639Z,14.90
2023-02-21T16:30:22.190Z,13.60
2023-02-21T16:32:51.548Z,11.43
2023-02-21T16:35:21.629Z,12.40
2023-02-21T16:37:51.178Z,13.00
2023-02-21T16:40:23.787Z,12.77
2023-02-21T16:42:52.669Z,24.00
2023-02-21T16:45:22.386Z,13.47
2023-02-21T16:47:52.223Z,11.80
2023-02-21T16:50:23.562Z,11.20
2023-02-21T16:52:51.594Z,11.93
2023-02-21T16:55:20.500Z,11.93
2023-02-21T16:57:50.626Z,10.60
2023-02-21T17:00:22.532Z,12.27
2023-02-21T17:02:51.366Z,12.50
2023-02-21T17:05:21.175Z,12.10
2023-02-21T17:07:49.829Z,12.43
2023-02-21T17:10:17.841Z,12.40
2023-02-21T17:12:45.872Z,12.80
2023-02-21T17:15:14.415Z,12.67
2023-02-21T17:17:50.949Z,13.37
2023-02-21T17:20:21.341Z,14.20
2023-02-21T17:22:52.324Z,13.83
2023-02-21T17:25:21.405Z,13.27
2023-02-21T17:27:50.046Z,13.67
2023-02-21T17:30:19.419Z,12.77
2023-02-21T17:32:48.948Z,13.17
2023-02-21T17:35:19.321Z,12.23
2023-02-21T17:37:49.620Z,12.87
2023-02-21T17:40:19.229Z,13.00
2023-02-21T17:42:47.558Z,13.47
2023-02-21T17:45:19.183Z,13.87
2023-02-21T17:47:49.270Z,14.03
2023-02-21T17:50:17.620Z,15.00
2023-02-21T17:52:45.809Z,15.53
2023-02-21T17:55:19.350Z,17.17
2023-02-21T17:57:47.558Z,15.33
2023-02-21T18:00:22.274Z,16.30
2023-02-21T18:02:52.229Z,14.43
2023-02-21T18:05:20.574Z,15.20
2023-02-21T18:07:53.142Z,14.87
2023-02-21T18:10:53.731Z,14.93
2023-02-21T18:13:38.898Z,17.27
2023-02-21T18:16:07.248Z,15.13
2023-02-21T18:18:36.755Z,14.30
2023-02-21T18:21:05.094Z,15.50
2023-02-21T18:23:34.389Z,15.63
2023-02-21T18:26:03.264Z,14.93
2023-02-21T18:28:32.120Z,13.67
2023-02-21T18:31:00.165Z,14.63
2023-02-21T18:33:28.560Z,14.30
2023-02-21T18:35:59.435Z,14.53
2023-02-21T18:38:28.421Z,16.07
2023-02-21T18:41:01.715Z,15.73
2023-02-21T18:43:31.252Z,15.93
2023-02-21T18:45:59.758Z,15.20
2023-02-21T18:48:28.189Z,14.57
2023-02-21T18:51:02.984Z,15.10
2023-02-21T18:53:32.064Z,16.90
2023-02-21T18:56:00.070Z,14.87
2023-02-21T18:58:28.070Z,16.50
2023-02-21T19:00:56.737Z,16.13
2023-02-21T19:03:26.272Z,14.30
2023-02-21T19:05:54.370Z,14.97
2023-02-21T19:08:23.841Z,14.33
2023-02-21T19:10:53.721Z,15.40
2023-02-21T19:13:21.826Z,15.47
2023-02-21T19:15:49.793Z,14.90
2023-02-21T19:18:18.292Z,15.63
2023-02-21T19:20:46.292Z,15.90
2023-02-21T19:23:15.868Z,15.40
2023-02-21T19:25:45.578Z,13.40
2023-02-21T19:28:13.639Z,14.10
2023-02-21T19:30:41.766Z,15.77
2023-02-21T19:33:10.228Z,14.83
2023-02-21T19:35:39.673Z,16.07
2023-02-21T19:38:09.484Z,15.97
2023-02-21T19:40:37.503Z,16.93
2023-02-21T19:43:07.465Z,17.10
2023-02-21T19:45:36.411Z,15.40
2023-02-21T19:48:04.569Z,22.37
2023-02-21T19:50:37.513Z,23.83
2023-02-21T19:53:05.988Z,19.67
2023-02-21T19:55:34.155Z,23.90
2023-02-21T19:58:07.046Z,25.40
2023-02-21T20:00:38.790Z,30.77
2023-02-21T20:03:11.597Z,25.53
2023-02-21T20:05:41.445Z,27.20
2023-02-21T20:08:09.489Z,19.03
2023-02-21T20:10:37.543Z,19.73
2023-02-21T20:13:07.517Z,18.83
2023-02-21T20:15:37.882Z,17.73
2023-02-21T20:18:06.624Z,16.63
2023-02-21T20:20:34.744Z,16.63
2023-02-21T20:23:03.651Z,17.33
2023-02-21T20:25:31.968Z,16.67
2023-02-21T20:28:00.166Z,16.80
2023-02-21T20:30:28.375Z,17.30
2023-02-21T20:32:58.960Z,17.43
2023-02-21T20:35:27.087Z,17.83
2023-02-21T20:38:00.801Z,18.30
2023-02-21T20:40:29.363Z,17.93
2023-02-21T20:42:57.400Z,17.13
2023-02-21T20:45:25.441Z,18.50
2023-02-21T20:47:53.665Z,21.23
2023-02-21T20:50:24.946Z,20.00
2023-02-21T20:52:53.101Z,21.10
2023-02-21T20:55:22.372Z,17.47
2023-02-21T20:57:51.349Z,19.47
2023-02-21T21:00:23.493Z,17.67
2023-02-21T21:02:52.184Z,19.47
2023-02-21T21:05:22.086Z,17.87
2023-02-21T21:07:52.348Z,19.53
2023-02-21T21:10:21.936Z,18.53
2023-02-21T21:12:51.455Z,18.27
2023-02-21T21:15:32.044Z,19.87
2023-02-21T21:18:05.189Z,17.67
2023-02-21T21:20:44.407Z,18.50
2023-02-21T21:23:17.867Z,21.07
2023-02-21T21:25:46.025Z,19.97
2023-02-21T21:28:14.009Z,19.90
2023-02-21T21:30:42.638Z,20.50
2023-02-21T21:33:11.640Z,19.87
2023-02-21T21:35:41.211Z,19.60
2023-02-21T21:38:11.182Z,18.97
2023-02-21T21:40:39.203Z,18.83
2023-02-21T21:43:12.229Z,19.17
2023-02-21T21:45:44.563Z,19.27
2023-02-21T21:48:14.597Z,18.37
2023-02-21T21:50:44.248Z,19.33
2023-02-21T21:53:14.941Z,19.07
2023-02-21T21:55:47.016Z,21.07
2023-02-21T21:58:15.418Z,20.03
2023-02-21T22:00:43.758Z,20.13
2023-02-21T22:03:14.369Z,17.40
2023-02-21T22:05:44.485Z,19.17
2023-02-21T22:08:16.464Z,19.87
2023-02-21T22:10:45.245Z,19.03
2023-02-21T22:13:14.608Z,19.23
2023-02-21T22:15:44.036Z,18.97
2023-02-21T22:18:14.363Z,19.20
2023-02-21T22:20:49.277Z,19.00
2023-02-21T22:23:21.012Z,20.83
2023-02-21T22:25:49.093Z,20.90
2023-02-21T22:28:18.734Z,20.00
2023-02-21T22:30:47.205Z,19.90
2023-02-21T22:33:19.685Z,19.77
2023-02-21T22:35:49.096Z,19.20
2023-02-21T22:38:17.786Z,19.80
2023-02-21T22:40:46.201Z,19.50
2023-02-21T22:43:14.509Z,19.23
2023-02-21T22:45:49.658Z,20.60
2023-02-21T22:48:20.672Z,20.20
2023-02-21T22:50:50.422Z,20.17
2023-02-21T22:53:21.273Z,20.43
2023-02-21T22:55:52.255Z,20.60
2023-02-21T22:58:21.107Z,19.87
2023-02-21T23:00:49.925Z,19.47
2023-02-21T23:03:18.156Z,20.33
2023-02-21T23:05:48.012Z,20.60
2023-02-21T23:08:19.065Z,20.37
2023-02-21T23:10:47.516Z,22.73
2023-02-21T23:13:19.095Z,22.87
2023-02-21T23:15:48.153Z,22.67
2023-02-21T23:25:40.882Z,23.47
2023-02-21T23:28:12.131Z,22.70
2023-02-21T23:30:46.370Z,23.10
2023-02-21T23:33:16.398Z,23.57
2023-02-21T23:35:45.877Z,22.33
2023-02-21T23:38:16.342Z,23.03
2023-02-21T23:40:47.120Z,23.27
2023-02-21T23:43:17.958Z,26.13
2023-02-21T23:45:48.337Z,24.87
2023-02-21T23:48:16.887Z,25.27
2023-02-21T23:50:47.003Z,24.27
2023-02-21T23:53:18.266Z,25.17
2023-02-21T23:55:48.538Z,25.93
2023-02-21T23:58:19.067Z,27.30
